Terminal Aerodrome Forecast
Issued by NWS

Home | Current Version | Previous Version | Text Only | Print | Product List | Glossary On
Versions: 1 2 3 4 5 6 7 8 9 10 11 12 13 14 15
000
FTUS43 KFGF 240117 AAA
TAFTVF
TAF AMD
KTVF 240117Z 2401/2424 09010KT P6SM OVC080
     FM240300 08006KT P6SM SCT110
     FM241700 11009KT P6SM FEW050=

USA.gov is the U.S. government's official web portal to all federal, state and local government web resources and services.